This is the latest recevied weather packets stored in our database for station/object SV1BYK-1. If no packets are shown the sender has not sent any weather packets the latest 10 day(s).
| Time | Temp. | Humidity | Pressure | Rain* | Wind** | Luminosity | Snow |
|---|---|---|---|---|---|---|---|
| 1777986775 | 25.56° C | 20% | 1007.8 hPa | 0 mm | - | - | - |
| 1777986235 | 26.11° C | 19% | 1008 hPa | 0 mm | - | - | - |
| 1777984075 | 25.56° C | 20% | 1008.1 hPa | 0 mm | - | - | - |
| 1777978135 | 25° C | 22% | 1008.8 hPa | 0 mm | - | - | - |
| 1777974895 | 25.56° C | 22% | 1009.7 hPa | 0 mm | - | - | - |
| 1777971655 | 25° C | 21% | 1010.3 hPa | 0 mm | - | - | - |
| 1777961936 | 20.56° C | 33% | 1011.9 hPa | 0 mm | - | - | - |
| 1777952216 | 10° C | 74% | 1013.7 hPa | 0 mm | - | - | - |
| 1777950596 | 10° C | 74% | 1013.7 hPa | 0 mm | - | - | - |
| 1777950056 | 10° C | 74% | 1013.7 hPa | 0 mm | - | - | - |
| 1777948976 | 10° C | 74% | 1013.7 hPa | 0 mm | - | - | - |
| 1777947896 | 10° C | 74% | 1013.7 hPa | 0 mm | - | - | - |
| 1777942496 | 10° C | 74% | 1013.7 hPa | 0 mm | - | - | - |
| 1777931888 | 11.67° C | 54% | 1012.7 hPa | 0 mm | - | - | - |
| 1777929728 | 11.67° C | 54% | 1012.7 hPa | 0 mm | - | - | - |
| 1777927569 | 11.67° C | 54% | 1012.7 hPa | 0 mm | - | - | - |
| 1777891389 | 11.67° C | 60% | 1022.3 hPa | 0 mm | - | - | - |
| 1777888689 | 11.67° C | 60% | 1022.3 hPa | 0 mm | - | - | - |
| 1777880049 | 11.67° C | 60% | 1022.3 hPa | 0 mm | - | - | - |
| 1777879509 | 11.67° C | 60% | 1022.3 hPa | 0 mm | - | - | - |
| 1777877349 | 11.67° C | 60% | 1022.3 hPa | 0 mm | - | - | - |
| 1777875729 | 11.67° C | 60% | 1022.3 hPa | 0 mm | - | - | - |
| 1777875189 | 11.67° C | 60% | 1022.3 hPa | 0 mm | - | - | - |
| 1777869789 | 11.67° C | 60% | 1022.3 hPa | 0 mm | - | - | - |
| 1777868709 | 11.67° C | 60% | 1022.3 hPa | 0 mm | - | - | - |
* Rain latest hour (hover to see other rain measurements)
** Current wind speed in m/s (hover to see current wind gust speed)